PWSweather.com
Personal Weather Stations
Station Observations
ISARDEGN48
BittiIT 08021

BittiIT 08021

Lat: 40.4805, Lon: 9.3887

Elevation: 1804

Station Type: La Crosse WS2355

http://meteobitti.altervista.org

High Low Average
Temperature 64.2°F17.9°C 44.4°F6.9°C 53.2°F11.8°C
Dew Point 48.9°F9.4°C 39.7°F4.3°C 43.7°F6.5°C
Winds 17.9 mph 28.8 kmh Calm Calm 3.0 mph SE4.8 kmh SE
Wind Gusts 22.6 mph36.4 kmh 1.3 mph2.1 kmh 8.0 mph12.9 kmh
Humidity 87% 42% 72%
Pressure 30.76 in1041.7 mb 30.68 in1038.9 mb -
Precipitation 0.12 in3.0 mm - -
Hour Temp Dew Point Humidity Winds Wind Gusts Pressure Precip Precip Rate Daily Precip Total
12:00 AM 48.4°F9.1°C 43.1°F6.2°C 82% 19.5 mph SW31.4 kmh SW 19.5 mph31.4 kmh 30.72 in1040.3 mb 0.00 in0.0 mm 0.00 in0.0 mm 0.00 in0.0 mm
12:05 AM 48.0°F8.9°C 43.4°F6.3°C 84% 13.4 mph SW21.6 kmh SW 19.5 mph31.4 kmh 30.72 in1040.3 mb 0.00 in0.0 mm 0.00 in0.0 mm 0.00 in0.0 mm
12:10 AM 47.8°F8.8°C 43.2°F6.2°C 84% 13.2 mph SW21.2 kmh SW 20.6 mph33.2 kmh 30.72 in1040.3 mb 0.00 in0.0 mm 0.00 in0.0 mm 0.00 in0.0 mm
12:15 AM 47.7°F8.7°C 43.7°F6.5°C 86% 14.3 mph SW23.0 kmh SW 21.7 mph34.9 kmh 30.72 in1040.3 mb 0.00 in0.0 mm 0.00 in0.0 mm 0.00 in0.0 mm
12:20 AM 47.5°F8.6°C 43.5°F6.4°C 86% 13.4 mph SW21.6 kmh SW 21.7 mph34.9 kmh 30.71 in1040.0 mb 0.00 in0.0 mm 0.00 in0.0 mm 0.00 in0.0 mm
12:25 AM 47.5°F8.6°C 43.5°F6.4°C 86% 14.1 mph SW22.7 kmh SW 19.7 mph31.7 kmh 30.71 in1040.0 mb 0.00 in0.0 mm 0.00 in0.0 mm 0.00 in0.0 mm
12:30 AM 47.7°F8.7°C 43.7°F6.5°C 86% 16.1 mph SW25.9 kmh SW 19.0 mph30.6 kmh 30.71 in1040.0 mb 0.00 in0.0 mm 0.00 in0.0 mm 0.00 in0.0 mm
12:35 AM 47.8°F8.8°C 44.2°F6.8°C 87% 10.1 mph SW16.3 kmh SW 19.0 mph30.6 kmh 30.71 in1040.0 mb 0.00 in0.0 mm 0.00 in0.0 mm 0.00 in0.0 mm
12:40 AM 47.8°F8.8°C 43.8°F6.6°C 86% 15.9 mph SW25.6 kmh SW 19.0 mph30.6 kmh 30.71 in1040.0 mb 0.00 in0.0 mm 0.00 in0.0 mm 0.00 in0.0 mm
12:45 AM 48.0°F8.9°C 44.0°F6.7°C 86% 10.1 mph SSW16.3 kmh SSW 19.7 mph31.7 kmh 30.71 in1040.0 mb 0.00 in0.0 mm 0.00 in0.0 mm 0.00 in0.0 mm
12:50 AM 48.0°F8.9°C 43.7°F6.5°C 85% 16.1 mph SSW25.9 kmh SSW 19.7 mph31.7 kmh 30.71 in1040.0 mb 0.00 in0.0 mm 0.00 in0.0 mm 0.00 in0.0 mm
12:55 AM 48.2°F9.0°C 43.9°F6.6°C 85% 16.3 mph SSW26.2 kmh SSW 22.1 mph35.6 kmh 30.71 in1040.0 mb 0.00 in0.0 mm 0.00 in0.0 mm 0.00 in0.0 mm
01:00 AM 48.4°F9.1°C 43.7°F6.5°C 84% 9.2 mph SSW14.8 kmh SSW 22.1 mph35.6 kmh 30.71 in1040.0 mb 0.00 in0.0 mm 0.00 in0.0 mm 0.00 in0.0 mm
01:05 AM 48.4°F9.1°C 43.4°F6.3°C 83% 17.9 mph SSW28.8 kmh SSW 21.0 mph33.8 kmh 30.71 in1040.0 mb 0.00 in0.0 mm 0.00 in0.0 mm 0.00 in0.0 mm
01:10 AM 48.6°F9.2°C 43.6°F6.4°C 83% 14.3 mph SSW23.0 kmh SSW 21.3 mph34.3 kmh 30.71 in1040.0 mb 0.00 in0.0 mm 0.00 in0.0 mm 0.00 in0.0 mm
01:15 AM 48.6°F9.2°C 43.3°F6.3°C 82% 14.5 mph SSW23.3 kmh SSW 22.4 mph36.0 kmh 30.71 in1040.0 mb 0.00 in0.0 mm 0.00 in0.0 mm 0.00 in0.0 mm
01:20 AM 48.4°F9.1°C 43.1°F6.2°C 82% 15.7 mph SSW25.3 kmh SSW 22.6 mph36.4 kmh 30.71 in1040.0 mb 0.00 in0.0 mm 0.00 in0.0 mm 0.00 in0.0 mm
01:25 AM 48.4°F9.1°C 43.1°F6.2°C 82% 15.2 mph SSW24.5 kmh SSW 22.6 mph36.4 kmh 30.70 in1039.6 mb 0.00 in0.0 mm 0.00 in0.0 mm 0.00 in0.0 mm
01:30 AM 48.2°F9.0°C 42.9°F6.1°C 82% 17.0 mph SSW27.4 kmh SSW 21.0 mph33.8 kmh 30.70 in1039.6 mb 0.00 in0.0 mm 0.00 in0.0 mm 0.00 in0.0 mm
01:35 AM 48.0°F8.9°C 43.1°F6.2°C 83% 13.0 mph SSW20.9 kmh SSW 19.9 mph32.0 kmh 30.70 in1039.6 mb 0.00 in0.0 mm 0.00 in0.0 mm 0.00 in0.0 mm
01:40 AM 47.8°F8.8°C 42.9°F6.1°C 83% 14.3 mph SSW23.0 kmh SSW 21.9 mph35.2 kmh 30.70 in1039.6 mb 0.00 in0.0 mm 0.00 in0.0 mm 0.00 in0.0 mm
01:45 AM 47.5°F8.6°C 42.9°F6.1°C 84% 15.4 mph SSW24.8 kmh SSW 21.9 mph35.2 kmh 30.70 in1039.6 mb 0.00 in0.0 mm 0.00 in0.0 mm 0.00 in0.0 mm
01:50 AM 47.5°F8.6°C 42.9°F6.1°C 84% 5.6 mph SSW9.0 kmh SSW 20.1 mph32.3 kmh 30.70 in1039.6 mb 0.00 in0.0 mm 0.00 in0.0 mm 0.00 in0.0 mm
01:55 AM 47.3°F8.5°C 42.7°F5.9°C 84% 10.3 mph SSW16.6 kmh SSW 20.1 mph32.3 kmh 30.70 in1039.6 mb 0.00 in0.0 mm 0.00 in0.0 mm 0.00 in0.0 mm
02:00 AM 47.5°F8.6°C 42.9°F6.1°C 84% 9.6 mph SSW15.4 kmh SSW 19.0 mph30.6 kmh 30.70 in1039.6 mb 0.00 in0.0 mm 0.00 in0.0 mm 0.00 in0.0 mm
02:05 AM 47.3°F8.5°C 42.7°F5.9°C 84% 13.2 mph SSW21.2 kmh SSW 19.0 mph30.6 kmh 30.70 in1039.6 mb 0.00 in0.0 mm 0.00 in0.0 mm 0.00 in0.0 mm
02:10 AM 47.1°F8.4°C 42.5°F5.8°C 84% 9.4 mph SSW15.1 kmh SSW 19.0 mph30.6 kmh 30.69 in1039.3 mb 0.00 in0.0 mm 0.00 in0.0 mm 0.00 in0.0 mm
02:15 AM 47.1°F8.4°C 42.9°F6.1°C 85% 10.5 mph SSW16.9 kmh SSW 19.0 mph30.6 kmh 30.70 in1039.6 mb 0.00 in0.0 mm 0.00 in0.0 mm 0.00 in0.0 mm
02:20 AM 46.9°F8.3°C 42.7°F5.9°C 85% 11.2 mph SSW18.0 kmh SSW 16.6 mph26.7 kmh 30.69 in1039.3 mb 0.00 in0.0 mm 0.00 in0.0 mm 0.00 in0.0 mm
02:25 AM 46.9°F8.3°C 42.7°F5.9°C 85% 7.8 mph SSW12.6 kmh SSW 16.6 mph26.7 kmh 30.70 in1039.6 mb 0.00 in0.0 mm 0.00 in0.0 mm 0.00 in0.0 mm
02:30 AM 46.9°F8.3°C 42.7°F5.9°C 85% 7.4 mph SSW11.9 kmh SSW 16.1 mph25.9 kmh 30.69 in1039.3 mb 0.00 in0.0 mm 0.00 in0.0 mm 0.00 in0.0 mm
02:35 AM 46.9°F8.3°C 42.7°F5.9°C 85% 6.3 mph SSW10.1 kmh SSW 15.7 mph25.3 kmh 30.69 in1039.3 mb 0.00 in0.0 mm 0.00 in0.0 mm 0.00 in0.0 mm
02:40 AM 46.8°F8.2°C 42.8°F6.0°C 86% 9.8 mph SSW15.8 kmh SSW 15.7 mph25.3 kmh 30.69 in1039.3 mb 0.00 in0.0 mm 0.00 in0.0 mm 0.00 in0.0 mm
02:45 AM 46.6°F8.1°C 42.6°F5.9°C 86% 5.6 mph SSW9.0 kmh SSW 13.0 mph20.9 kmh 30.69 in1039.3 mb 0.00 in0.0 mm 0.00 in0.0 mm 0.00 in0.0 mm
02:50 AM 46.6°F8.1°C 42.6°F5.9°C 86% 2.5 mph S4.0 kmh S 9.2 mph14.8 kmh 30.69 in1039.3 mb 0.00 in0.0 mm 0.00 in0.0 mm 0.00 in0.0 mm
02:55 AM 46.6°F8.1°C 42.3°F5.7°C 85% 8.3 mph S13.4 kmh S 10.3 mph16.6 kmh 30.69 in1039.3 mb 0.00 in0.0 mm 0.00 in0.0 mm 0.00 in0.0 mm
03:00 AM 46.6°F8.1°C 42.3°F5.7°C 85% 5.8 mph S9.3 kmh S 10.3 mph16.6 kmh 30.69 in1039.3 mb 0.00 in0.0 mm 0.00 in0.0 mm 0.00 in0.0 mm
03:05 AM 46.6°F8.1°C 42.3°F5.7°C 85% 1.8 mph S2.9 kmh S 8.1 mph13.0 kmh 30.69 in1039.3 mb 0.00 in0.0 mm 0.00 in0.0 mm 0.00 in0.0 mm
03:10 AM 46.4°F8.0°C 42.2°F5.7°C 85% 2.0 mph S3.2 kmh S 8.1 mph13.0 kmh 30.69 in1039.3 mb 0.00 in0.0 mm 0.00 in0.0 mm 0.00 in0.0 mm
03:15 AM 46.2°F7.9°C 42.0°F5.6°C 85% 2.2 mph S3.5 kmh S 6.5 mph10.5 kmh 30.69 in1039.3 mb 0.00 in0.0 mm 0.00 in0.0 mm 0.00 in0.0 mm
03:20 AM 46.2°F7.9°C 41.7°F5.4°C 84% 2.9 mph S4.7 kmh S 5.8 mph9.3 kmh 30.69 in1039.3 mb 0.00 in0.0 mm 0.00 in0.0 mm 0.00 in0.0 mm
03:25 AM 46.2°F7.9°C 41.7°F5.4°C 84% 0.7 mph ESE1.1 kmh ESE 3.8 mph6.1 kmh 30.69 in1039.3 mb 0.00 in0.0 mm 0.00 in0.0 mm 0.00 in0.0 mm
03:30 AM 46.0°F7.8°C 41.5°F5.3°C 84% Calm Calm 3.8 mph6.1 kmh 30.69 in1039.3 mb 0.00 in0.0 mm 0.00 in0.0 mm 0.00 in0.0 mm
03:35 AM 46.0°F7.8°C 41.8°F5.4°C 85% 1.3 mph SSE2.1 kmh SSE 4.0 mph6.4 kmh 30.69 in1039.3 mb 0.00 in0.0 mm 0.00 in0.0 mm 0.00 in0.0 mm
03:40 AM 46.0°F7.8°C 41.8°F5.4°C 85% 1.3 mph S2.1 kmh S 4.0 mph6.4 kmh 30.69 in1039.3 mb 0.00 in0.0 mm 0.00 in0.0 mm 0.00 in0.0 mm
03:45 AM 46.0°F7.8°C 41.8°F5.4°C 85% Calm Calm 2.2 mph3.5 kmh 30.69 in1039.3 mb 0.00 in0.0 mm 0.00 in0.0 mm 0.00 in0.0 mm
03:50 AM 46.0°F7.8°C 41.5°F5.3°C 84% 0.9 mph NW1.4 kmh NW 1.3 mph2.1 kmh 30.69 in1039.3 mb 0.00 in0.0 mm 0.00 in0.0 mm 0.00 in0.0 mm
03:55 AM 46.0°F7.8°C 41.8°F5.4°C 85% Calm Calm 3.4 mph5.5 kmh 30.69 in1039.3 mb 0.00 in0.0 mm 0.00 in0.0 mm 0.00 in0.0 mm
04:00 AM 45.9°F7.7°C 41.6°F5.3°C 85% Calm Calm 3.4 mph5.5 kmh 30.68 in1038.9 mb 0.00 in0.0 mm 0.00 in0.0 mm 0.00 in0.0 mm
04:05 AM 45.7°F7.6°C 41.1°F5.1°C 84% 2.5 mph E4.0 kmh E 2.9 mph4.7 kmh 30.69 in1039.3 mb 0.00 in0.0 mm 0.00 in0.0 mm 0.00 in0.0 mm
04:10 AM 45.5°F7.5°C 41.3°F5.2°C 85% 1.8 mph ENE2.9 kmh ENE 2.9 mph4.7 kmh 30.69 in1039.3 mb 0.00 in0.0 mm 0.00 in0.0 mm 0.00 in0.0 mm
04:15 AM 45.5°F7.5°C 41.3°F5.2°C 85% 0.9 mph NNE1.4 kmh NNE 3.6 mph5.8 kmh 30.69 in1039.3 mb 0.00 in0.0 mm 0.00 in0.0 mm 0.00 in0.0 mm
04:20 AM 45.3°F7.4°C 41.1°F5.1°C 85% Calm Calm 3.6 mph5.8 kmh 30.68 in1038.9 mb 0.00 in0.0 mm 0.00 in0.0 mm 0.00 in0.0 mm
04:25 AM 45.3°F7.4°C 41.1°F5.1°C 85% Calm Calm 2.0 mph3.2 kmh 30.68 in1038.9 mb 0.00 in0.0 mm 0.00 in0.0 mm 0.00 in0.0 mm
04:30 AM 45.1°F7.3°C 40.9°F4.9°C 85% Calm Calm 4.3 mph6.9 kmh 30.68 in1038.9 mb 0.00 in0.0 mm 0.00 in0.0 mm 0.00 in0.0 mm
04:35 AM 45.1°F7.3°C 40.9°F4.9°C 85% Calm Calm 4.3 mph6.9 kmh 30.68 in1038.9 mb 0.00 in0.0 mm 0.00 in0.0 mm 0.00 in0.0 mm
04:40 AM 45.0°F7.2°C 40.7°F4.8°C 85% 1.6 mph N2.6 kmh N 3.1 mph5.0 kmh 30.68 in1038.9 mb 0.00 in0.0 mm 0.00 in0.0 mm 0.00 in0.0 mm
04:45 AM 45.0°F7.2°C 40.7°F4.8°C 85% 0.9 mph N1.4 kmh N 2.5 mph4.0 kmh 30.68 in1038.9 mb 0.00 in0.0 mm 0.00 in0.0 mm 0.00 in0.0 mm
04:50 AM 44.8°F7.1°C 40.5°F4.7°C 85% Calm Calm 2.5 mph4.0 kmh 30.68 in1038.9 mb 0.00 in0.0 mm 0.00 in0.0 mm 0.00 in0.0 mm
04:55 AM 44.8°F7.1°C 40.5°F4.7°C 85% 1.3 mph WNW2.1 kmh WNW 2.9 mph4.7 kmh 30.68 in1038.9 mb 0.00 in0.0 mm 0.00 in0.0 mm 0.00 in0.0 mm
05:00 AM 44.8°F7.1°C 40.9°F4.9°C 86% 2.9 mph NW4.7 kmh NW 9.2 mph14.8 kmh 30.69 in1039.3 mb 0.00 in0.0 mm 0.00 in0.0 mm 0.00 in0.0 mm
05:05 AM 45.0°F7.2°C 40.7°F4.8°C 85% 3.6 mph NW5.8 kmh NW 9.2 mph14.8 kmh 30.69 in1039.3 mb 0.00 in0.0 mm 0.00 in0.0 mm 0.00 in0.0 mm
05:10 AM 45.0°F7.2°C 40.7°F4.8°C 85% 8.5 mph NW13.7 kmh NW 8.5 mph13.7 kmh 30.69 in1039.3 mb 0.00 in0.0 mm 0.00 in0.0 mm 0.00 in0.0 mm
05:15 AM 45.1°F7.3°C 40.9°F4.9°C 85% 1.6 mph NW2.6 kmh NW 8.5 mph13.7 kmh 30.69 in1039.3 mb 0.00 in0.0 mm 0.00 in0.0 mm 0.00 in0.0 mm
05:20 AM 45.0°F7.2°C 40.7°F4.8°C 85% Calm Calm 6.7 mph10.8 kmh 30.69 in1039.3 mb 0.00 in0.0 mm 0.00 in0.0 mm 0.00 in0.0 mm
05:25 AM 44.8°F7.1°C 40.5°F4.7°C 85% 2.5 mph SW4.0 kmh SW 3.4 mph5.5 kmh 30.69 in1039.3 mb 0.00 in0.0 mm 0.00 in0.0 mm 0.00 in0.0 mm
05:30 AM 44.4°F6.9°C 40.2°F4.6°C 85% 2.2 mph SW3.5 kmh SW 10.3 mph16.6 kmh 30.68 in1038.9 mb 0.00 in0.0 mm 0.00 in0.0 mm 0.00 in0.0 mm
05:35 AM 44.4°F6.9°C 40.2°F4.6°C 85% 4.3 mph SW6.9 kmh SW 10.3 mph16.6 kmh 30.69 in1039.3 mb 0.00 in0.0 mm 0.00 in0.0 mm 0.00 in0.0 mm
05:40 AM 45.0°F7.2°C 40.4°F4.7°C 84% 2.9 mph SW4.7 kmh SW 10.3 mph16.6 kmh 30.69 in1039.3 mb 0.00 in0.0 mm 0.00 in0.0 mm 0.00 in0.0 mm
05:45 AM 45.1°F7.3°C 40.6°F4.8°C 84% 1.8 mph SW2.9 kmh SW 8.1 mph13.0 kmh 30.69 in1039.3 mb 0.00 in0.0 mm 0.00 in0.0 mm 0.00 in0.0 mm
05:50 AM 45.1°F7.3°C 40.6°F4.8°C 84% 5.1 mph SSW8.2 kmh SSW 7.4 mph11.9 kmh 30.69 in1039.3 mb 0.00 in0.0 mm 0.00 in0.0 mm 0.00 in0.0 mm
05:55 AM 45.0°F7.2°C 40.4°F4.7°C 84% 5.1 mph SSW8.2 kmh SSW 7.4 mph11.9 kmh 30.69 in1039.3 mb 0.00 in0.0 mm 0.00 in0.0 mm 0.00 in0.0 mm
06:00 AM 45.0°F7.2°C 40.4°F4.7°C 84% 4.5 mph SSW7.2 kmh SSW 7.4 mph11.9 kmh 30.69 in1039.3 mb 0.00 in0.0 mm 0.00 in0.0 mm 0.00 in0.0 mm
06:05 AM 45.1°F7.3°C 40.6°F4.8°C 84% 5.1 mph SSW8.2 kmh SSW 7.6 mph12.2 kmh 30.69 in1039.3 mb 0.00 in0.0 mm 0.00 in0.0 mm 0.00 in0.0 mm
06:10 AM 45.5°F7.5°C 41.0°F5.0°C 84% 2.0 mph SW3.2 kmh SW 7.6 mph12.2 kmh 30.69 in1039.3 mb 0.00 in0.0 mm 0.00 in0.0 mm 0.00 in0.0 mm
06:15 AM 45.7°F7.6°C 40.8°F4.9°C 83% Calm Calm 7.4 mph11.9 kmh 30.70 in1039.6 mb 0.00 in0.0 mm 0.00 in0.0 mm 0.00 in0.0 mm
06:20 AM 46.2°F7.9°C 41.1°F5.1°C 82% 0.7 mph SW1.1 kmh SW 8.9 mph14.3 kmh 30.70 in1039.6 mb 0.00 in0.0 mm 0.00 in0.0 mm 0.00 in0.0 mm
06:25 AM 46.6°F8.1°C 41.1°F5.1°C 81% 6.0 mph SW9.7 kmh SW 9.6 mph15.4 kmh 30.70 in1039.6 mb 0.00 in0.0 mm 0.00 in0.0 mm 0.00 in0.0 mm
06:30 AM 47.1°F8.4°C 41.3°F5.2°C 80% 5.4 mph SW8.7 kmh SW 11.4 mph18.3 kmh 30.70 in1039.6 mb 0.00 in0.0 mm 0.00 in0.0 mm 0.00 in0.0 mm
06:35 AM 47.1°F8.4°C 40.9°F4.9°C 79% 6.9 mph SW11.1 kmh SW 11.6 mph18.7 kmh 30.70 in1039.6 mb 0.00 in0.0 mm 0.00 in0.0 mm 0.00 in0.0 mm
06:40 AM 47.8°F8.8°C 41.3°F5.2°C 78% 2.9 mph SW4.7 kmh SW 11.6 mph18.7 kmh 30.70 in1039.6 mb 0.00 in0.0 mm 0.00 in0.0 mm 0.00 in0.0 mm
06:45 AM 48.0°F8.9°C 41.1°F5.1°C 77% 4.7 mph SSW7.6 kmh SSW 10.5 mph16.9 kmh 30.70 in1039.6 mb 0.00 in0.0 mm 0.00 in0.0 mm 0.00 in0.0 mm
06:50 AM 48.2°F9.0°C 41.2°F5.1°C 77% 7.6 mph SSW12.2 kmh SSW 10.5 mph16.9 kmh 30.71 in1040.0 mb 0.00 in0.0 mm 0.00 in0.0 mm 0.00 in0.0 mm
06:55 AM 48.6°F9.2°C 41.6°F5.3°C 77% 8.5 mph SSW13.7 kmh SSW 13.0 mph20.9 kmh 30.71 in1040.0 mb 0.00 in0.0 mm 0.00 in0.0 mm 0.00 in0.0 mm
07:00 AM 48.7°F9.3°C 41.4°F5.2°C 76% 9.2 mph SSW14.8 kmh SSW 13.0 mph20.9 kmh 30.71 in1040.0 mb 0.00 in0.0 mm 0.00 in0.0 mm 0.00 in0.0 mm
07:05 AM 48.9°F9.4°C 41.6°F5.3°C 76% 3.4 mph SSW5.5 kmh SSW 12.1 mph19.5 kmh 30.71 in1040.0 mb 0.00 in0.0 mm 0.00 in0.0 mm 0.00 in0.0 mm
07:10 AM 49.3°F9.6°C 42.0°F5.6°C 76% 2.9 mph SSW4.7 kmh SSW 10.3 mph16.6 kmh 30.71 in1040.0 mb 0.00 in0.0 mm 0.00 in0.0 mm 0.00 in0.0 mm
07:15 AM 49.6°F9.8°C 41.6°F5.3°C 74% 4.7 mph SSW7.6 kmh SSW 8.9 mph14.3 kmh 30.71 in1040.0 mb 0.00 in0.0 mm 0.00 in0.0 mm 0.00 in0.0 mm
07:20 AM 49.8°F9.9°C 41.8°F5.4°C 74% 4.7 mph SSW7.6 kmh SSW 9.8 mph15.8 kmh 30.71 in1040.0 mb 0.00 in0.0 mm 0.00 in0.0 mm 0.00 in0.0 mm
07:25 AM 50.2°F10.1°C 41.8°F5.4°C 73% 3.8 mph S6.1 kmh S 10.7 mph17.2 kmh 30.71 in1040.0 mb 0.00 in0.0 mm 0.00 in0.0 mm 0.00 in0.0 mm
07:30 AM 50.5°F10.3°C 41.9°F5.5°C 72% 1.6 mph S2.6 kmh S 10.7 mph17.2 kmh 30.71 in1040.0 mb 0.00 in0.0 mm 0.00 in0.0 mm 0.00 in0.0 mm
07:35 AM 51.1°F10.6°C 42.4°F5.8°C 72% 2.9 mph S4.7 kmh S 6.7 mph10.8 kmh 30.71 in1040.0 mb 0.00 in0.0 mm 0.00 in0.0 mm 0.00 in0.0 mm
07:40 AM 51.6°F10.9°C 42.9°F6.1°C 72% Calm Calm 6.0 mph9.7 kmh 30.71 in1040.0 mb 0.00 in0.0 mm 0.00 in0.0 mm 0.00 in0.0 mm
07:45 AM 51.8°F11.0°C 43.1°F6.2°C 72% 2.2 mph S3.5 kmh S 6.5 mph10.5 kmh 30.71 in1040.0 mb 0.00 in0.0 mm 0.00 in0.0 mm 0.00 in0.0 mm
07:50 AM 52.3°F11.3°C 43.6°F6.4°C 72% Calm Calm 6.5 mph10.5 kmh 30.71 in1040.0 mb 0.00 in0.0 mm 0.00 in0.0 mm 0.00 in0.0 mm
07:55 AM 52.7°F11.5°C 42.8°F6.0°C 69% 2.5 mph NNE4.0 kmh NNE 7.8 mph12.6 kmh 30.72 in1040.3 mb 0.00 in0.0 mm 0.00 in0.0 mm 0.00 in0.0 mm
08:00 AM 52.9°F11.6°C 43.0°F6.1°C 69% 2.5 mph NNE4.0 kmh NNE 7.8 mph12.6 kmh 30.72 in1040.3 mb 0.00 in0.0 mm 0.00 in0.0 mm 0.00 in0.0 mm
08:05 AM 53.1°F11.7°C 42.8°F6.0°C 68% 3.1 mph NNE5.0 kmh NNE 6.5 mph10.5 kmh 30.72 in1040.3 mb 0.00 in0.0 mm 0.00 in0.0 mm 0.00 in0.0 mm
08:10 AM 53.2°F11.8°C 42.9°F6.1°C 68% 0.9 mph NNE1.4 kmh NNE 9.4 mph15.1 kmh 30.72 in1040.3 mb 0.00 in0.0 mm 0.00 in0.0 mm 0.00 in0.0 mm
08:15 AM 53.6°F12.0°C 43.1°F6.2°C 68% 2.0 mph NNE3.2 kmh NNE 9.4 mph15.1 kmh 30.71 in1040.0 mb 0.00 in0.0 mm 0.00 in0.0 mm 0.00 in0.0 mm
08:20 AM 54.0°F12.2°C 42.8°F6.0°C 66% 4.0 mph NE6.4 kmh NE 5.8 mph9.3 kmh 30.72 in1040.3 mb 0.00 in0.0 mm 0.00 in0.0 mm 0.00 in0.0 mm
08:25 AM 54.0°F12.2°C 42.8°F6.0°C 66% 2.5 mph ENE4.0 kmh ENE 6.3 mph10.1 kmh 30.72 in1040.3 mb 0.00 in0.0 mm 0.00 in0.0 mm 0.00 in0.0 mm
08:30 AM 54.3°F12.4°C 42.8°F6.0°C 65% Calm Calm 6.3 mph10.1 kmh 30.72 in1040.3 mb 0.00 in0.0 mm 0.00 in0.0 mm 0.00 in0.0 mm
08:35 AM 55.2°F12.9°C 43.6°F6.4°C 65% Calm Calm 4.7 mph7.6 kmh 30.72 in1040.3 mb 0.00 in0.0 mm 0.00 in0.0 mm 0.00 in0.0 mm
08:40 AM 55.8°F13.2°C 43.7°F6.5°C 64% 1.3 mph E2.1 kmh E 3.1 mph5.0 kmh 30.72 in1040.3 mb 0.00 in0.0 mm 0.00 in0.0 mm 0.00 in0.0 mm
08:45 AM 55.9°F13.3°C 43.1°F6.2°C 62% 2.0 mph ENE3.2 kmh ENE 3.4 mph5.5 kmh 30.72 in1040.3 mb 0.00 in0.0 mm 0.00 in0.0 mm 0.00 in0.0 mm
08:50 AM 55.9°F13.3°C 42.7°F5.9°C 61% 1.3 mph NE2.1 kmh NE 3.4 mph5.5 kmh 30.72 in1040.3 mb 0.00 in0.0 mm 0.00 in0.0 mm 0.00 in0.0 mm
08:55 AM 56.5°F13.6°C 42.8°F6.0°C 60% Calm Calm 3.4 mph5.5 kmh 30.72 in1040.3 mb 0.00 in0.0 mm 0.00 in0.0 mm 0.00 in0.0 mm
09:00 AM 57.4°F14.1°C 44.1°F6.7°C 61% 2.2 mph N3.5 kmh N 3.1 mph5.0 kmh 30.72 in1040.3 mb 0.00 in0.0 mm 0.00 in0.0 mm 0.00 in0.0 mm
09:05 AM 58.6°F14.8°C 44.8°F7.1°C 60% Calm Calm 2.2 mph3.5 kmh 30.72 in1040.3 mb 0.00 in0.0 mm 0.00 in0.0 mm 0.00 in0.0 mm
09:10 AM 59.2°F15.1°C 44.8°F7.1°C 59% 1.8 mph E2.9 kmh E 5.4 mph8.7 kmh 30.72 in1040.3 mb 0.00 in0.0 mm 0.00 in0.0 mm 0.00 in0.0 mm
09:15 AM 57.9°F14.4°C 43.2°F6.2°C 58% Calm Calm 5.8 mph9.3 kmh 30.72 in1040.3 mb 0.00 in0.0 mm 0.00 in0.0 mm 0.00 in0.0 mm
09:20 AM 57.9°F14.4°C 42.8°F6.0°C 57% 4.5 mph NNE7.2 kmh NNE 5.8 mph9.3 kmh 30.72 in1040.3 mb 0.00 in0.0 mm 0.00 in0.0 mm 0.00 in0.0 mm
09:25 AM 57.7°F14.3°C 43.1°F6.2°C 58% 6.0 mph NE9.7 kmh NE 8.7 mph14.0 kmh 30.72 in1040.3 mb 0.00 in0.0 mm 0.00 in0.0 mm 0.00 in0.0 mm
09:30 AM 57.7°F14.3°C 42.6°F5.9°C 57% 3.6 mph NE5.8 kmh NE 8.9 mph14.3 kmh 30.72 in1040.3 mb 0.00 in0.0 mm 0.00 in0.0 mm 0.00 in0.0 mm
09:35 AM 58.1°F14.5°C 42.9°F6.1°C 57% 5.6 mph NE9.0 kmh NE 8.9 mph14.3 kmh 30.73 in1040.6 mb 0.00 in0.0 mm 0.00 in0.0 mm 0.00 in0.0 mm
09:40 AM 58.1°F14.5°C 42.5°F5.8°C 56% 3.8 mph NE6.1 kmh NE 7.8 mph12.6 kmh 30.73 in1040.6 mb 0.00 in0.0 mm 0.00 in0.0 mm 0.00 in0.0 mm
09:45 AM 58.3°F14.6°C 43.1°F6.2°C 57% 3.4 mph NE5.5 kmh NE 7.8 mph12.6 kmh 30.73 in1040.6 mb 0.00 in0.0 mm 0.00 in0.0 mm 0.00 in0.0 mm
09:50 AM 58.1°F14.5°C 42.5°F5.8°C 56% 2.9 mph NE4.7 kmh NE 7.2 mph11.6 kmh 30.73 in1040.6 mb 0.00 in0.0 mm 0.00 in0.0 mm 0.00 in0.0 mm
09:55 AM 58.6°F14.8°C 43.4°F6.3°C 57% 5.4 mph NE8.7 kmh NE 10.5 mph16.9 kmh 30.73 in1040.6 mb 0.00 in0.0 mm 0.00 in0.0 mm 0.00 in0.0 mm
10:00 AM 58.8°F14.9°C 43.1°F6.2°C 56% Calm Calm 10.5 mph16.9 kmh 30.73 in1040.6 mb 0.00 in0.0 mm 0.00 in0.0 mm 0.00 in0.0 mm
10:05 AM 59.2°F15.1°C 42.5°F5.8°C 54% 3.6 mph SE5.8 kmh SE 7.4 mph11.9 kmh 30.73 in1040.6 mb 0.00 in0.0 mm 0.00 in0.0 mm 0.00 in0.0 mm
10:10 AM 59.5°F15.3°C 41.9°F5.5°C 52% 1.8 mph WSW2.9 kmh WSW 7.4 mph11.9 kmh 30.73 in1040.6 mb 0.00 in0.0 mm 0.00 in0.0 mm 0.00 in0.0 mm
10:15 AM 59.5°F15.3°C 42.3°F5.7°C 53% 2.0 mph WSW3.2 kmh WSW 5.8 mph9.3 kmh 30.73 in1040.6 mb 0.00 in0.0 mm 0.00 in0.0 mm 0.00 in0.0 mm
10:20 AM 59.9°F15.5°C 41.7°F5.4°C 51% 0.9 mph SW1.4 kmh SW 5.6 mph9.0 kmh 30.73 in1040.6 mb 0.00 in0.0 mm 0.00 in0.0 mm 0.00 in0.0 mm
10:25 AM 60.4°F15.8°C 42.2°F5.7°C 51% 1.6 mph SSW2.6 kmh SSW 5.8 mph9.3 kmh 30.73 in1040.6 mb 0.00 in0.0 mm 0.00 in0.0 mm 0.00 in0.0 mm
10:30 AM 60.4°F15.8°C 42.7°F5.9°C 52% 2.2 mph SW3.5 kmh SW 5.8 mph9.3 kmh 30.73 in1040.6 mb 0.00 in0.0 mm 0.00 in0.0 mm 0.00 in0.0 mm
10:35 AM 60.6°F15.9°C 42.4°F5.8°C 51% 2.9 mph NE4.7 kmh NE 6.3 mph10.1 kmh 30.73 in1040.6 mb 0.00 in0.0 mm 0.00 in0.0 mm 0.00 in0.0 mm
10:40 AM 60.6°F15.9°C 42.9°F6.1°C 52% Calm Calm 6.3 mph10.1 kmh 30.73 in1040.6 mb 0.00 in0.0 mm 0.00 in0.0 mm 0.00 in0.0 mm
10:45 AM 61.2°F16.2°C 42.9°F6.1°C 51% 6.9 mph E11.1 kmh E 9.6 mph15.4 kmh 30.73 in1040.6 mb 0.00 in0.0 mm 0.00 in0.0 mm 0.00 in0.0 mm
10:50 AM 61.0°F16.1°C 42.2°F5.7°C 50% 2.0 mph E3.2 kmh E 9.6 mph15.4 kmh 30.73 in1040.6 mb 0.00 in0.0 mm 0.00 in0.0 mm 0.00 in0.0 mm
10:55 AM 61.5°F16.4°C 42.2°F5.7°C 49% Calm Calm 6.9 mph11.1 kmh 30.73 in1040.6 mb 0.00 in0.0 mm 0.00 in0.0 mm 0.00 in0.0 mm
11:00 AM 61.5°F16.4°C 42.2°F5.7°C 49% 3.4 mph SE5.5 kmh SE 6.7 mph10.8 kmh 30.73 in1040.6 mb 0.00 in0.0 mm 0.00 in0.0 mm 0.00 in0.0 mm
11:05 AM 61.7°F16.5°C 42.3°F5.7°C 49% 5.4 mph SE8.7 kmh SE 6.5 mph10.5 kmh 30.73 in1040.6 mb 0.00 in0.0 mm 0.00 in0.0 mm 0.00 in0.0 mm
11:10 AM 61.7°F16.5°C 42.3°F5.7°C 49% 3.1 mph NE5.0 kmh NE 7.4 mph11.9 kmh 30.73 in1040.6 mb 0.00 in0.0 mm 0.00 in0.0 mm 0.00 in0.0 mm
11:15 AM 61.3°F16.3°C 42.0°F5.6°C 49% 9.2 mph NE14.8 kmh NE 11.9 mph19.2 kmh 30.73 in1040.6 mb 0.00 in0.0 mm 0.00 in0.0 mm 0.00 in0.0 mm
11:20 AM 61.5°F16.4°C 42.2°F5.7°C 49% 6.3 mph NE10.1 kmh NE 11.9 mph19.2 kmh 30.73 in1040.6 mb 0.00 in0.0 mm 0.00 in0.0 mm 0.00 in0.0 mm
11:25 AM 61.2°F16.2°C 42.4°F5.8°C 50% 7.2 mph NE11.6 kmh NE 11.6 mph18.7 kmh 30.73 in1040.6 mb 0.00 in0.0 mm 0.00 in0.0 mm 0.00 in0.0 mm
11:30 AM 61.2°F16.2°C 41.3°F5.2°C 48% 3.1 mph NE5.0 kmh NE 11.6 mph18.7 kmh 30.73 in1040.6 mb 0.00 in0.0 mm 0.00 in0.0 mm 0.00 in0.0 mm
11:35 AM 61.2°F16.2°C 41.8°F5.4°C 49% 6.7 mph NE10.8 kmh NE 10.1 mph16.3 kmh 30.73 in1040.6 mb 0.00 in0.0 mm 0.00 in0.0 mm 0.00 in0.0 mm
11:40 AM 61.3°F16.3°C 41.4°F5.2°C 48% 6.3 mph NE10.1 kmh NE 11.0 mph17.7 kmh 30.73 in1040.6 mb 0.00 in0.0 mm 0.00 in0.0 mm 0.00 in0.0 mm
11:45 AM 61.5°F16.4°C 42.2°F5.7°C 48% Calm Calm 11.0 mph17.7 kmh 30.72 in1040.3 mb 0.00 in0.0 mm 0.00 in0.0 mm 0.00 in0.0 mm
11:50 AM 61.7°F16.5°C 41.7°F5.4°C 48% 4.5 mph NE7.2 kmh NE 12.3 mph19.8 kmh 30.72 in1040.3 mb 0.00 in0.0 mm 0.00 in0.0 mm 0.00 in0.0 mm
11:55 AM 61.9°F16.6°C 41.3°F5.2°C 47% 3.4 mph ENE5.5 kmh ENE 12.3 mph19.8 kmh 30.72 in1040.3 mb 0.00 in0.0 mm 0.00 in0.0 mm 0.00 in0.0 mm
12:00 PM 62.1°F16.7°C 41.5°F5.3°C 47% Calm Calm 10.7 mph17.2 kmh 30.72 in1040.3 mb 0.00 in0.0 mm 0.00 in0.0 mm 0.00 in0.0 mm
12:05 PM 62.6°F17.0°C 41.4°F5.2°C 46% 4.0 mph NE6.4 kmh NE 10.3 mph16.6 kmh 30.72 in1040.3 mb 0.00 in0.0 mm 0.00 in0.0 mm 0.00 in0.0 mm
12:10 PM 63.1°F17.3°C 40.7°F4.8°C 44% 4.7 mph ENE7.6 kmh ENE 8.9 mph14.3 kmh 30.72 in1040.3 mb 0.00 in0.0 mm 0.00 in0.0 mm 0.00 in0.0 mm
12:15 PM 63.7°F17.6°C 40.6°F4.8°C 43% 3.1 mph NE5.0 kmh NE 8.9 mph14.3 kmh 30.72 in1040.3 mb 0.00 in0.0 mm 0.00 in0.0 mm 0.00 in0.0 mm
12:20 PM 64.0°F17.8°C 41.0°F5.0°C 43% 4.3 mph NE6.9 kmh NE 9.2 mph14.8 kmh 30.72 in1040.3 mb 0.00 in0.0 mm 0.00 in0.0 mm 0.00 in0.0 mm
12:30 PM 63.3°F17.4°C 39.7°F4.3°C 42% 3.6 mph NNE5.8 kmh NNE 9.4 mph15.1 kmh 30.71 in1040.0 mb 0.00 in0.0 mm 0.00 in0.0 mm 0.00 in0.0 mm
12:35 PM 63.0°F17.2°C 40.0°F4.4°C 43% Calm Calm 9.4 mph15.1 kmh 30.71 in1040.0 mb 0.00 in0.0 mm 0.00 in0.0 mm 0.00 in0.0 mm
12:40 PM 63.0°F17.2°C 40.6°F4.8°C 44% 1.8 mph NE2.9 kmh NE 8.3 mph13.4 kmh 30.71 in1040.0 mb 0.00 in0.0 mm 0.00 in0.0 mm 0.00 in0.0 mm
12:45 PM 62.4°F16.9°C 40.1°F4.5°C 44% 3.8 mph NE6.1 kmh NE 8.9 mph14.3 kmh 30.72 in1040.3 mb 0.00 in0.0 mm 0.00 in0.0 mm 0.00 in0.0 mm
12:50 PM 62.2°F16.8°C 39.9°F4.4°C 44% 0.9 mph NE1.4 kmh NE 9.2 mph14.8 kmh 30.72 in1040.3 mb 0.00 in0.0 mm 0.00 in0.0 mm 0.00 in0.0 mm
12:55 PM 62.2°F16.8°C 40.5°F4.7°C 45% 2.9 mph NE4.7 kmh NE 9.2 mph14.8 kmh 30.72 in1040.3 mb 0.00 in0.0 mm 0.00 in0.0 mm 0.00 in0.0 mm
01:00 PM 62.2°F16.8°C 40.5°F4.7°C 45% 0.9 mph E1.4 kmh E 6.0 mph9.7 kmh 30.72 in1040.3 mb 0.00 in0.0 mm 0.00 in0.0 mm 0.00 in0.0 mm
01:05 PM 62.4°F16.9°C 41.2°F5.1°C 46% Calm Calm 4.5 mph7.2 kmh 30.72 in1040.3 mb 0.00 in0.0 mm 0.00 in0.0 mm 0.00 in0.0 mm
01:10 PM 62.4°F16.9°C 41.8°F5.4°C 47% Calm Calm 4.5 mph7.2 kmh 30.72 in1040.3 mb 0.00 in0.0 mm 0.00 in0.0 mm 0.00 in0.0 mm
01:15 PM 62.8°F17.1°C 43.3°F6.3°C 49% 2.0 mph NNE3.2 kmh NNE 4.7 mph7.6 kmh 30.72 in1040.3 mb 0.00 in0.0 mm 0.00 in0.0 mm 0.00 in0.0 mm
01:20 PM 62.8°F17.1°C 43.3°F6.3°C 49% Calm Calm 4.7 mph7.6 kmh 30.72 in1040.3 mb 0.00 in0.0 mm 0.00 in0.0 mm 0.00 in0.0 mm
01:30 PM 62.4°F16.9°C 43.5°F6.4°C 50% Calm Calm 7.2 mph11.6 kmh 30.72 in1040.3 mb 0.00 in0.0 mm 0.00 in0.0 mm 0.00 in0.0 mm
01:35 PM 61.9°F16.6°C 43.5°F6.4°C 51% 2.2 mph S3.5 kmh S 7.2 mph11.6 kmh 30.71 in1040.0 mb 0.00 in0.0 mm 0.00 in0.0 mm 0.00 in0.0 mm
01:40 PM 61.7°F16.5°C 43.4°F6.3°C 51% 2.2 mph SW3.5 kmh SW 7.8 mph12.6 kmh 30.71 in1040.0 mb 0.00 in0.0 mm 0.00 in0.0 mm 0.00 in0.0 mm
01:45 PM 61.9°F16.6°C 43.1°F6.2°C 50% 3.8 mph SW6.1 kmh SW 7.8 mph12.6 kmh 30.71 in1040.0 mb 0.00 in0.0 mm 0.00 in0.0 mm 0.00 in0.0 mm
01:50 PM 62.4°F16.9°C 43.5°F6.4°C 50% Calm Calm 6.3 mph10.1 kmh 30.71 in1040.0 mb 0.00 in0.0 mm 0.00 in0.0 mm 0.00 in0.0 mm
01:55 PM 63.5°F17.5°C 44.5°F6.9°C 50% 5.1 mph WSW8.2 kmh WSW 6.7 mph10.8 kmh 30.71 in1040.0 mb 0.00 in0.0 mm 0.00 in0.0 mm 0.00 in0.0 mm
02:00 PM 63.7°F17.6°C 44.1°F6.7°C 49% 2.0 mph SW3.2 kmh SW 11.2 mph18.0 kmh 30.71 in1040.0 mb 0.00 in0.0 mm 0.00 in0.0 mm 0.00 in0.0 mm
02:05 PM 63.7°F17.6°C 44.1°F6.7°C 49% 1.8 mph SW2.9 kmh SW 11.2 mph18.0 kmh 30.71 in1040.0 mb 0.00 in0.0 mm 0.00 in0.0 mm 0.00 in0.0 mm
02:10 PM 63.7°F17.6°C 43.5°F6.4°C 48% 4.7 mph WSW7.6 kmh WSW 6.0 mph9.7 kmh 30.71 in1040.0 mb 0.00 in0.0 mm 0.00 in0.0 mm 0.00 in0.0 mm
02:15 PM 63.7°F17.6°C 43.5°F6.4°C 48% 3.8 mph WSW6.1 kmh WSW 8.1 mph13.0 kmh 30.71 in1040.0 mb 0.00 in0.0 mm 0.00 in0.0 mm 0.00 in0.0 mm
02:20 PM 63.5°F17.5°C 43.4°F6.3°C 48% Calm Calm 8.1 mph13.0 kmh 30.70 in1039.6 mb 0.00 in0.0 mm 0.00 in0.0 mm 0.00 in0.0 mm
02:30 PM 64.2°F17.9°C 43.4°F6.3°C 47% 6.3 mph WSW10.1 kmh WSW 10.3 mph16.6 kmh 30.70 in1039.6 mb 0.00 in0.0 mm 0.00 in0.0 mm 0.00 in0.0 mm
02:35 PM 63.5°F17.5°C 43.4°F6.3°C 48% 2.9 mph WSW4.7 kmh WSW 10.3 mph16.6 kmh 30.70 in1039.6 mb 0.00 in0.0 mm 0.00 in0.0 mm 0.00 in0.0 mm
02:40 PM 63.1°F17.3°C 43.0°F6.1°C 48% 2.2 mph SW3.5 kmh SW 8.9 mph14.3 kmh 30.70 in1039.6 mb 0.00 in0.0 mm 0.00 in0.0 mm 0.00 in0.0 mm
02:45 PM 63.1°F17.3°C 43.6°F6.4°C 49% 4.7 mph NE7.6 kmh NE 4.7 mph7.6 kmh 30.70 in1039.6 mb 0.00 in0.0 mm 0.00 in0.0 mm 0.00 in0.0 mm
02:50 PM 63.1°F17.3°C 43.6°F6.4°C 49% Calm Calm 5.1 mph8.2 kmh 30.70 in1039.6 mb 0.00 in0.0 mm 0.00 in0.0 mm 0.00 in0.0 mm
02:55 PM 63.7°F17.6°C 44.1°F6.7°C 49% 2.0 mph NE3.2 kmh NE 5.1 mph8.2 kmh 30.69 in1039.3 mb 0.00 in0.0 mm 0.00 in0.0 mm 0.00 in0.0 mm
03:00 PM 63.7°F17.6°C 44.7°F7.1°C 50% Calm Calm 8.3 mph13.4 kmh 30.70 in1039.6 mb 0.00 in0.0 mm 0.00 in0.0 mm 0.00 in0.0 mm
03:05 PM 63.7°F17.6°C 45.2°F7.3°C 51% 9.4 mph NE15.1 kmh NE 11.2 mph18.0 kmh 30.70 in1039.6 mb 0.00 in0.0 mm 0.00 in0.0 mm 0.00 in0.0 mm
03:10 PM 62.4°F16.9°C 46.0°F7.8°C 55% 3.8 mph NE6.1 kmh NE 13.0 mph20.9 kmh 30.69 in1039.3 mb 0.00 in0.0 mm 0.00 in0.0 mm 0.00 in0.0 mm
03:15 PM 61.2°F16.2°C 44.3°F6.8°C 54% 3.4 mph NE5.5 kmh NE 13.0 mph20.9 kmh 30.69 in1039.3 mb 0.00 in0.0 mm 0.00 in0.0 mm 0.00 in0.0 mm
03:20 PM 60.6°F15.9°C 45.3°F7.4°C 57% 4.3 mph ENE6.9 kmh ENE 10.7 mph17.2 kmh 30.69 in1039.3 mb 0.00 in0.0 mm 0.00 in0.0 mm 0.00 in0.0 mm
03:30 PM 60.1°F15.6°C 45.7°F7.6°C 59% 7.4 mph NE11.9 kmh NE 8.7 mph14.0 kmh 30.69 in1039.3 mb 0.00 in0.0 mm 0.00 in0.0 mm 0.00 in0.0 mm
03:35 PM 59.5°F15.3°C 45.2°F7.3°C 59% 2.2 mph NE3.5 kmh NE 8.7 mph14.0 kmh 30.69 in1039.3 mb 0.00 in0.0 mm 0.00 in0.0 mm 0.00 in0.0 mm
03:40 PM 59.7°F15.4°C 44.9°F7.2°C 58% 4.0 mph NE6.4 kmh NE 8.1 mph13.0 kmh 30.69 in1039.3 mb 0.00 in0.0 mm 0.00 in0.0 mm 0.00 in0.0 mm
03:45 PM 60.1°F15.6°C 45.7°F7.6°C 59% 2.0 mph NE3.2 kmh NE 6.7 mph10.8 kmh 30.69 in1039.3 mb 0.00 in0.0 mm 0.00 in0.0 mm 0.00 in0.0 mm
03:50 PM 60.1°F15.6°C 45.2°F7.3°C 58% 2.7 mph E4.3 kmh E 3.8 mph6.1 kmh 30.69 in1039.3 mb 0.00 in0.0 mm 0.00 in0.0 mm 0.00 in0.0 mm
03:55 PM 59.9°F15.5°C 45.1°F7.3°C 58% 2.5 mph E4.0 kmh E 4.0 mph6.4 kmh 30.69 in1039.3 mb 0.00 in0.0 mm 0.00 in0.0 mm 0.00 in0.0 mm
04:00 PM 59.9°F15.5°C 45.6°F7.6°C 59% 3.4 mph E5.5 kmh E 5.4 mph8.7 kmh 30.70 in1039.6 mb 0.00 in0.0 mm 0.00 in0.0 mm 0.00 in0.0 mm
04:05 PM 59.5°F15.3°C 45.2°F7.3°C 59% Calm Calm 5.4 mph8.7 kmh 30.70 in1039.6 mb 0.00 in0.0 mm 0.00 in0.0 mm 0.00 in0.0 mm
04:10 PM 59.2°F15.1°C 46.6°F8.1°C 63% 6.5 mph NE10.5 kmh NE 10.7 mph17.2 kmh 30.71 in1040.0 mb 0.00 in0.0 mm 0.00 in0.0 mm 0.00 in0.0 mm
04:15 PM 58.3°F14.6°C 48.9°F9.4°C 71% 3.6 mph NE5.8 kmh NE 11.6 mph18.7 kmh 30.72 in1040.3 mb 0.00 in0.0 mm 0.00 in0.0 mm 0.00 in0.0 mm
04:20 PM 56.1°F13.4°C 47.6°F8.7°C 73% 4.5 mph NNE7.2 kmh NNE 15.4 mph24.8 kmh 30.72 in1040.3 mb 0.02 in0.5 mm 0.24 in6.1 mm 0.02 in0.5 mm
04:30 PM 52.7°F11.5°C 45.0°F7.2°C 75% 3.8 mph NE6.1 kmh NE 14.3 mph23.0 kmh 30.72 in1040.3 mb 0.12 in3.0 mm 0.60 in15.2 mm 0.12 in3.0 mm
04:35 PM 52.2°F11.2°C 45.2°F7.3°C 77% 6.9 mph NE11.1 kmh NE 14.3 mph23.0 kmh 30.72 in1040.3 mb 0.12 in3.0 mm 0.00 in0.0 mm 0.12 in3.0 mm
04:40 PM 52.0°F11.1°C 45.0°F7.2°C 77% 2.2 mph NE3.5 kmh NE 10.1 mph16.3 kmh 30.72 in1040.3 mb 0.12 in3.0 mm 0.00 in0.0 mm 0.12 in3.0 mm
04:45 PM 52.0°F11.1°C 45.7°F7.6°C 79% 1.3 mph ENE2.1 kmh ENE 7.4 mph11.9 kmh 30.72 in1040.3 mb 0.12 in3.0 mm 0.00 in0.0 mm 0.12 in3.0 mm
04:50 PM 52.2°F11.2°C 46.2°F7.9°C 80% 1.6 mph SSW2.6 kmh SSW 3.6 mph5.8 kmh 30.72 in1040.3 mb 0.12 in3.0 mm 0.00 in0.0 mm 0.12 in3.0 mm
04:55 PM 52.2°F11.2°C 46.2°F7.9°C 80% 1.3 mph SW2.1 kmh SW 4.0 mph6.4 kmh 30.72 in1040.3 mb 0.12 in3.0 mm 0.00 in0.0 mm 0.12 in3.0 mm
05:00 PM 52.7°F11.5°C 46.8°F8.2°C 80% 2.0 mph SW3.2 kmh SW 4.0 mph6.4 kmh 30.72 in1040.3 mb 0.12 in3.0 mm 0.00 in0.0 mm 0.12 in3.0 mm
05:05 PM 53.2°F11.8°C 47.3°F8.5°C 80% 2.0 mph W3.2 kmh W 3.4 mph5.5 kmh 30.71 in1040.0 mb 0.12 in3.0 mm 0.00 in0.0 mm 0.12 in3.0 mm
05:10 PM 53.6°F12.0°C 46.9°F8.3°C 78% 1.3 mph W2.1 kmh W 3.4 mph5.5 kmh 30.71 in1040.0 mb 0.10 in2.5 mm 0.00 in0.0 mm 0.12 in3.0 mm
05:15 PM 54.3°F12.4°C 47.2°F8.4°C 77% Calm Calm 3.1 mph5.0 kmh 30.71 in1040.0 mb 0.10 in2.5 mm 0.00 in0.0 mm 0.12 in3.0 mm
05:20 PM 55.0°F12.8°C 47.6°F8.7°C 76% 2.5 mph WNW4.0 kmh WNW 3.6 mph5.8 kmh 30.71 in1040.0 mb 0.08 in2.0 mm 0.00 in0.0 mm 0.12 in3.0 mm
05:25 PM 55.2°F12.9°C 46.4°F8.0°C 72% 2.2 mph WNW3.5 kmh WNW 3.8 mph6.1 kmh 30.71 in1040.0 mb 0.08 in2.0 mm 0.00 in0.0 mm 0.12 in3.0 mm
05:30 PM 55.4°F13.0°C 46.9°F8.3°C 73% Calm Calm 3.8 mph6.1 kmh 30.71 in1040.0 mb 0.00 in0.0 mm 0.00 in0.0 mm 0.12 in3.0 mm
05:35 PM 55.4°F13.0°C 47.2°F8.4°C 74% 2.7 mph WSW4.3 kmh WSW 3.1 mph5.0 kmh 30.71 in1040.0 mb 0.00 in0.0 mm 0.00 in0.0 mm 0.12 in3.0 mm
05:40 PM 55.0°F12.8°C 46.9°F8.3°C 74% 2.7 mph WSW4.3 kmh WSW 3.6 mph5.8 kmh 30.71 in1040.0 mb 0.00 in0.0 mm 0.00 in0.0 mm 0.12 in3.0 mm
05:45 PM 54.0°F12.2°C 46.5°F8.1°C 76% 1.6 mph SW2.6 kmh SW 3.6 mph5.8 kmh 30.71 in1040.0 mb 0.00 in0.0 mm 0.00 in0.0 mm 0.12 in3.0 mm
05:50 PM 53.4°F11.9°C 46.4°F8.0°C 77% 2.2 mph SW3.5 kmh SW 3.8 mph6.1 kmh 30.71 in1040.0 mb 0.00 in0.0 mm 0.00 in0.0 mm 0.12 in3.0 mm
05:55 PM 53.2°F11.8°C 46.6°F8.1°C 78% 2.0 mph SW3.2 kmh SW 3.8 mph6.1 kmh 30.71 in1040.0 mb 0.00 in0.0 mm 0.00 in0.0 mm 0.12 in3.0 mm
06:00 PM 53.2°F11.8°C 47.3°F8.5°C 80% 3.6 mph SW5.8 kmh SW 3.8 mph6.1 kmh 30.71 in1040.0 mb 0.00 in0.0 mm 0.00 in0.0 mm 0.12 in3.0 mm
06:05 PM 53.2°F11.8°C 47.6°F8.7°C 81% 2.0 mph SW3.2 kmh SW 3.8 mph6.1 kmh 30.71 in1040.0 mb 0.00 in0.0 mm 0.00 in0.0 mm 0.12 in3.0 mm
06:10 PM 52.9°F11.6°C 46.9°F8.3°C 80% 3.4 mph SW5.5 kmh SW 6.9 mph11.1 kmh 30.71 in1040.0 mb 0.00 in0.0 mm 0.00 in0.0 mm 0.12 in3.0 mm
06:20 PM 52.5°F11.4°C 46.6°F8.1°C 80% 3.1 mph SW5.0 kmh SW 6.9 mph11.1 kmh 30.71 in1040.0 mb 0.00 in0.0 mm 0.00 in0.0 mm 0.12 in3.0 mm
06:25 PM 52.3°F11.3°C 46.4°F8.0°C 80% 1.8 mph SW2.9 kmh SW 6.9 mph11.1 kmh 30.71 in1040.0 mb 0.00 in0.0 mm 0.00 in0.0 mm 0.12 in3.0 mm
06:30 PM 52.5°F11.4°C 46.9°F8.3°C 81% Calm Calm 4.0 mph6.4 kmh 30.71 in1040.0 mb 0.00 in0.0 mm 0.00 in0.0 mm 0.12 in3.0 mm
06:35 PM 52.5°F11.4°C 46.9°F8.3°C 81% Calm Calm 2.9 mph4.7 kmh 30.72 in1040.3 mb 0.00 in0.0 mm 0.00 in0.0 mm 0.12 in3.0 mm
06:40 PM 52.5°F11.4°C 47.2°F8.4°C 82% 2.7 mph SW4.3 kmh SW 3.8 mph6.1 kmh 30.72 in1040.3 mb 0.00 in0.0 mm 0.00 in0.0 mm 0.12 in3.0 mm
06:45 PM 52.5°F11.4°C 47.2°F8.4°C 82% 3.4 mph SW5.5 kmh SW 3.8 mph6.1 kmh 30.72 in1040.3 mb 0.00 in0.0 mm 0.00 in0.0 mm 0.12 in3.0 mm
06:50 PM 52.3°F11.3°C 47.0°F8.3°C 82% Calm Calm 4.5 mph7.2 kmh 30.72 in1040.3 mb 0.00 in0.0 mm 0.00 in0.0 mm 0.12 in3.0 mm
06:55 PM 52.2°F11.2°C 47.1°F8.4°C 83% 2.9 mph SW4.7 kmh SW 4.5 mph7.2 kmh 30.72 in1040.3 mb 0.00 in0.0 mm 0.00 in0.0 mm 0.12 in3.0 mm
07:00 PM 52.0°F11.1°C 47.0°F8.3°C 83% 3.8 mph SW6.1 kmh SW 4.5 mph7.2 kmh 30.72 in1040.3 mb 0.00 in0.0 mm 0.00 in0.0 mm 0.12 in3.0 mm
07:05 PM 51.6°F10.9°C 46.6°F8.1°C 83% 2.7 mph SW4.3 kmh SW 4.7 mph7.6 kmh 30.72 in1040.3 mb 0.00 in0.0 mm 0.00 in0.0 mm 0.12 in3.0 mm
07:10 PM 51.3°F10.7°C 46.2°F7.9°C 83% 2.7 mph SW4.3 kmh SW 6.7 mph10.8 kmh 30.72 in1040.3 mb 0.00 in0.0 mm 0.00 in0.0 mm 0.12 in3.0 mm
07:15 PM 51.1°F10.6°C 45.8°F7.7°C 82% 3.4 mph SW5.5 kmh SW 6.7 mph10.8 kmh 30.72 in1040.3 mb 0.00 in0.0 mm 0.00 in0.0 mm 0.12 in3.0 mm
07:20 PM 50.7°F10.4°C 45.7°F7.6°C 83% Calm Calm 5.6 mph9.0 kmh 30.72 in1040.3 mb 0.00 in0.0 mm 0.00 in0.0 mm 0.12 in3.0 mm
07:25 PM 50.7°F10.4°C 45.7°F7.6°C 83% Calm Calm 4.5 mph7.2 kmh 30.72 in1040.3 mb 0.00 in0.0 mm 0.00 in0.0 mm 0.12 in3.0 mm
07:30 PM 50.7°F10.4°C 45.4°F7.4°C 82% Calm Calm 4.5 mph7.2 kmh 30.72 in1040.3 mb 0.00 in0.0 mm 0.00 in0.0 mm 0.12 in3.0 mm
07:35 PM 50.7°F10.4°C 45.4°F7.4°C 82% 1.6 mph SW2.6 kmh SW 3.6 mph5.8 kmh 30.73 in1040.6 mb 0.00 in0.0 mm 0.00 in0.0 mm 0.12 in3.0 mm
07:40 PM 50.7°F10.4°C 45.7°F7.6°C 83% 2.0 mph SW3.2 kmh SW 2.9 mph4.7 kmh 30.73 in1040.6 mb 0.00 in0.0 mm 0.00 in0.0 mm 0.12 in3.0 mm
07:45 PM 50.5°F10.3°C 45.5°F7.5°C 83% 1.1 mph SW1.8 kmh SW 3.1 mph5.0 kmh 30.73 in1040.6 mb 0.00 in0.0 mm 0.00 in0.0 mm 0.12 in3.0 mm
07:50 PM 50.4°F10.2°C 45.3°F7.4°C 83% 2.0 mph SW3.2 kmh SW 3.4 mph5.5 kmh 30.73 in1040.6 mb 0.00 in0.0 mm 0.00 in0.0 mm 0.12 in3.0 mm
07:55 PM 50.2°F10.1°C 45.2°F7.3°C 83% 2.7 mph SW4.3 kmh SW 3.4 mph5.5 kmh 30.73 in1040.6 mb 0.00 in0.0 mm 0.00 in0.0 mm 0.12 in3.0 mm
08:00 PM 50.0°F10.0°C 45.0°F7.2°C 83% 2.2 mph SW3.5 kmh SW 3.8 mph6.1 kmh 30.73 in1040.6 mb 0.00 in0.0 mm 0.00 in0.0 mm 0.12 in3.0 mm
08:05 PM 49.8°F9.9°C 44.8°F7.1°C 83% 2.5 mph SW4.0 kmh SW 3.8 mph6.1 kmh 30.73 in1040.6 mb 0.00 in0.0 mm 0.00 in0.0 mm 0.12 in3.0 mm
08:10 PM 49.6°F9.8°C 44.9°F7.2°C 84% 2.0 mph SW3.2 kmh SW 3.4 mph5.5 kmh 30.73 in1040.6 mb 0.00 in0.0 mm 0.00 in0.0 mm 0.12 in3.0 mm
08:15 PM 49.3°F9.6°C 44.6°F7.0°C 84% 3.1 mph SW5.0 kmh SW 7.4 mph11.9 kmh 30.73 in1040.6 mb 0.00 in0.0 mm 0.00 in0.0 mm 0.12 in3.0 mm
08:20 PM 49.3°F9.6°C 44.6°F7.0°C 84% 1.3 mph SW2.1 kmh SW 7.4 mph11.9 kmh 30.73 in1040.6 mb 0.00 in0.0 mm 0.00 in0.0 mm 0.12 in3.0 mm
08:25 PM 49.3°F9.6°C 44.9°F7.2°C 85% 2.2 mph SW3.5 kmh SW 4.3 mph6.9 kmh 30.74 in1041.0 mb 0.00 in0.0 mm 0.00 in0.0 mm 0.12 in3.0 mm
08:30 PM 49.6°F9.8°C 44.9°F7.2°C 84% 2.7 mph SW4.3 kmh SW 4.0 mph6.4 kmh 30.74 in1041.0 mb 0.00 in0.0 mm 0.00 in0.0 mm 0.12 in3.0 mm
08:35 PM 49.6°F9.8°C 44.9°F7.2°C 84% 2.2 mph SW3.5 kmh SW 3.8 mph6.1 kmh 30.74 in1041.0 mb 0.00 in0.0 mm 0.00 in0.0 mm 0.12 in3.0 mm
08:40 PM 49.6°F9.8°C 44.9°F7.2°C 84% 2.9 mph SW4.7 kmh SW 3.8 mph6.1 kmh 30.74 in1041.0 mb 0.00 in0.0 mm 0.00 in0.0 mm 0.12 in3.0 mm
08:45 PM 49.6°F9.8°C 44.9°F7.2°C 84% 2.9 mph SW4.7 kmh SW 4.7 mph7.6 kmh 30.75 in1041.3 mb 0.00 in0.0 mm 0.00 in0.0 mm 0.12 in3.0 mm
08:50 PM 49.3°F9.6°C 44.6°F7.0°C 84% 1.8 mph SW2.9 kmh SW 4.9 mph7.9 kmh 30.75 in1041.3 mb 0.00 in0.0 mm 0.00 in0.0 mm 0.12 in3.0 mm
08:55 PM 49.3°F9.6°C 44.9°F7.2°C 85% 0.9 mph SW1.4 kmh SW 4.9 mph7.9 kmh 30.75 in1041.3 mb 0.00 in0.0 mm 0.00 in0.0 mm 0.12 in3.0 mm
09:00 PM 49.6°F9.8°C 45.2°F7.3°C 85% 4.9 mph SW7.9 kmh SW 7.8 mph12.6 kmh 30.75 in1041.3 mb 0.00 in0.0 mm 0.00 in0.0 mm 0.12 in3.0 mm
09:05 PM 50.2°F10.1°C 46.1°F7.8°C 86% 5.6 mph SW9.0 kmh SW 8.1 mph13.0 kmh 30.75 in1041.3 mb 0.00 in0.0 mm 0.00 in0.0 mm 0.12 in3.0 mm
09:10 PM 51.1°F10.6°C 46.7°F8.2°C 85% 5.8 mph SW9.3 kmh SW 8.9 mph14.3 kmh 30.75 in1041.3 mb 0.00 in0.0 mm 0.00 in0.0 mm 0.12 in3.0 mm
09:15 PM 52.2°F11.2°C 47.8°F8.8°C 85% 2.9 mph SW4.7 kmh SW 8.9 mph14.3 kmh 30.75 in1041.3 mb 0.00 in0.0 mm 0.00 in0.0 mm 0.12 in3.0 mm
09:20 PM 52.5°F11.4°C 47.8°F8.8°C 84% 1.3 mph SW2.1 kmh SW 8.3 mph13.4 kmh 30.75 in1041.3 mb 0.00 in0.0 mm 0.00 in0.0 mm 0.12 in3.0 mm
09:25 PM 52.2°F11.2°C 47.1°F8.4°C 83% Calm Calm 5.6 mph9.0 kmh 30.75 in1041.3 mb 0.00 in0.0 mm 0.00 in0.0 mm 0.12 in3.0 mm
09:30 PM 51.4°F10.8°C 46.4°F8.0°C 83% Calm Calm 2.2 mph3.5 kmh 30.76 in1041.7 mb 0.00 in0.0 mm 0.00 in0.0 mm 0.12 in3.0 mm
09:35 PM 51.4°F10.8°C 46.7°F8.2°C 84% 1.6 mph SSE2.6 kmh SSE 2.2 mph3.5 kmh 30.75 in1041.3 mb 0.00 in0.0 mm 0.00 in0.0 mm 0.12 in3.0 mm
09:40 PM 51.6°F10.9°C 47.2°F8.4°C 85% 2.9 mph SW4.7 kmh SW 6.7 mph10.8 kmh 30.75 in1041.3 mb 0.00 in0.0 mm 0.00 in0.0 mm 0.12 in3.0 mm
09:45 PM 51.8°F11.0°C 47.7°F8.7°C 86% 3.6 mph SW5.8 kmh SW 6.7 mph10.8 kmh 30.75 in1041.3 mb 0.00 in0.0 mm 0.00 in0.0 mm 0.12 in3.0 mm
09:50 PM 52.0°F11.1°C 47.9°F8.8°C 86% 7.6 mph WSW12.2 kmh WSW 7.6 mph12.2 kmh 30.76 in1041.7 mb 0.00 in0.0 mm 0.00 in0.0 mm 0.12 in3.0 mm
09:55 PM 52.3°F11.3°C 48.2°F9.0°C 86% 3.8 mph WSW6.1 kmh WSW 8.3 mph13.4 kmh 30.76 in1041.7 mb 0.00 in0.0 mm 0.00 in0.0 mm 0.12 in3.0 mm
10:00 PM 52.5°F11.4°C 48.4°F9.1°C 86% 1.1 mph WSW1.8 kmh WSW 8.3 mph13.4 kmh 30.75 in1041.3 mb 0.00 in0.0 mm 0.00 in0.0 mm 0.12 in3.0 mm
10:05 PM 52.5°F11.4°C 48.1°F8.9°C 85% 3.1 mph WSW5.0 kmh WSW 7.8 mph12.6 kmh 30.75 in1041.3 mb 0.00 in0.0 mm 0.00 in0.0 mm 0.12 in3.0 mm
10:10 PM 52.5°F11.4°C 48.1°F8.9°C 85% 2.5 mph WSW4.0 kmh WSW 4.0 mph6.4 kmh 30.75 in1041.3 mb 0.00 in0.0 mm 0.00 in0.0 mm 0.12 in3.0 mm
10:15 PM 52.5°F11.4°C 48.1°F8.9°C 85% Calm Calm 4.3 mph6.9 kmh 30.75 in1041.3 mb 0.00 in0.0 mm 0.00 in0.0 mm 0.12 in3.0 mm
10:20 PM 52.3°F11.3°C 47.9°F8.8°C 85% Calm Calm 4.3 mph6.9 kmh 30.75 in1041.3 mb 0.00 in0.0 mm 0.00 in0.0 mm 0.12 in3.0 mm
10:25 PM 52.2°F11.2°C 47.4°F8.6°C 84% Calm Calm 2.0 mph3.2 kmh 30.75 in1041.3 mb 0.00 in0.0 mm 0.00 in0.0 mm 0.12 in3.0 mm
10:30 PM 51.6°F10.9°C 46.9°F8.3°C 84% 2.0 mph SW3.2 kmh SW 2.9 mph4.7 kmh 30.75 in1041.3 mb 0.00 in0.0 mm 0.00 in0.0 mm 0.12 in3.0 mm
10:35 PM 51.3°F10.7°C 46.5°F8.1°C 84% 1.6 mph SW2.6 kmh SW 2.9 mph4.7 kmh 30.75 in1041.3 mb 0.00 in0.0 mm 0.00 in0.0 mm 0.12 in3.0 mm
10:40 PM 50.7°F10.4°C 46.3°F7.9°C 85% Calm Calm 2.5 mph4.0 kmh 30.76 in1041.7 mb 0.00 in0.0 mm 0.00 in0.0 mm 0.12 in3.0 mm
10:45 PM 50.5°F10.3°C 46.1°F7.8°C 85% 2.2 mph SW3.5 kmh SW 3.1 mph5.0 kmh 30.75 in1041.3 mb 0.00 in0.0 mm 0.00 in0.0 mm 0.12 in3.0 mm
10:50 PM 50.2°F10.1°C 46.1°F7.8°C 86% 2.5 mph SW4.0 kmh SW 3.1 mph5.0 kmh 30.75 in1041.3 mb 0.00 in0.0 mm 0.00 in0.0 mm 0.12 in3.0 mm
10:55 PM 50.0°F10.0°C 45.9°F7.7°C 86% 2.5 mph SW4.0 kmh SW 4.0 mph6.4 kmh 30.76 in1041.7 mb 0.00 in0.0 mm 0.00 in0.0 mm 0.12 in3.0 mm
11:00 PM 49.8°F9.9°C 45.7°F7.6°C 86% 3.1 mph SW5.0 kmh SW 4.5 mph7.2 kmh 30.75 in1041.3 mb 0.00 in0.0 mm 0.00 in0.0 mm 0.12 in3.0 mm
11:05 PM 49.6°F9.8°C 45.6°F7.6°C 86% 2.5 mph SW4.0 kmh SW 4.5 mph7.2 kmh 30.75 in1041.3 mb 0.00 in0.0 mm 0.00 in0.0 mm 0.12 in3.0 mm
11:10 PM 49.3°F9.6°C 45.2°F7.3°C 86% 2.2 mph SW3.5 kmh SW 3.6 mph5.8 kmh 30.76 in1041.7 mb 0.00 in0.0 mm 0.00 in0.0 mm 0.12 in3.0 mm
11:15 PM 49.3°F9.6°C 45.5°F7.5°C 87% 2.7 mph SW4.3 kmh SW 3.1 mph5.0 kmh 30.76 in1041.7 mb 0.00 in0.0 mm 0.00 in0.0 mm 0.12 in3.0 mm
11:20 PM 49.3°F9.6°C 45.5°F7.5°C 87% 2.0 mph SW3.2 kmh SW 3.1 mph5.0 kmh 30.76 in1041.7 mb 0.00 in0.0 mm 0.00 in0.0 mm 0.12 in3.0 mm
11:25 PM 49.5°F9.7°C 45.7°F7.6°C 87% 2.5 mph SW4.0 kmh SW 3.1 mph5.0 kmh 30.76 in1041.7 mb 0.00 in0.0 mm 0.00 in0.0 mm 0.12 in3.0 mm
11:30 PM 49.6°F9.8°C 45.9°F7.7°C 87% 1.6 mph SW2.6 kmh SW 4.9 mph7.9 kmh 30.76 in1041.7 mb 0.00 in0.0 mm 0.00 in0.0 mm 0.12 in3.0 mm
11:35 PM 49.8°F9.9°C 46.0°F7.8°C 87% 1.3 mph SW2.1 kmh SW 4.9 mph7.9 kmh 30.76 in1041.7 mb 0.00 in0.0 mm 0.00 in0.0 mm 0.12 in3.0 mm
11:40 PM 49.6°F9.8°C 45.9°F7.7°C 87% Calm Calm 3.1 mph5.0 kmh 30.76 in1041.7 mb 0.00 in0.0 mm 0.00 in0.0 mm 0.12 in3.0 mm
11:45 PM 49.6°F9.8°C 45.9°F7.7°C 87% Calm Calm 2.5 mph4.0 kmh 30.76 in1041.7 mb 0.00 in0.0 mm 0.00 in0.0 mm 0.12 in3.0 mm
11:50 PM 49.6°F9.8°C 45.9°F7.7°C 87% 3.6 mph SW5.8 kmh SW 3.6 mph5.8 kmh 30.76 in1041.7 mb 0.00 in0.0 mm 0.00 in0.0 mm 0.12 in3.0 mm
11:55 PM 49.3°F9.6°C 45.2°F7.3°C 86% Calm Calm 3.6 mph5.8 kmh 30.76 in1041.7 mb 0.00 in0.0 mm 0.00 in0.0 mm 0.12 in3.0 mm